Time;durP1;ratioP1;P1;durP2;ratioP2;P2;SDS_P1;SDS_P2;PMS_P1;PMS_P2;Temp;Humidity;BMP_temperature;BMP_pressure;BME280_temperature;BME280_humidity;BME280_pressure;Samples;Min_cycle;Max_cycle;Signal;HPM_P1;HPM_P2
2021/11/27 00:00:33;;;;;;;12.48;9.10;;;;;;;2.48;100.00;94048.94;5039210;28;20060;-53
2021/11/27 00:03:02;;;;;;;;;;;;;;;2.31;100.00;94048.06;5056509;28;20506;-51
2021/11/27 00:05:34;;;;;;;12.18;8.85;;;;;;;2.27;100.00;94044.09;5061772;28;19960;-53
2021/11/27 00:08:03;;;;;;;13.75;8.63;;;;;;;2.79;100.00;94038.84;5058676;28;20104;-52
2021/11/27 00:10:33;;;;;;;12.45;8.38;;;;;;;2.76;100.00;94031.34;5059604;28;20397;-53
2021/11/27 00:13:03;;;;;;;12.85;8.65;;;;;;;2.74;100.00;94022.88;5060852;28;20075;-51
2021/11/27 00:15:33;;;;;;;10.88;8.23;;;;;;;3.15;100.00;94016.00;5050890;28;20068;-52
2021/11/27 00:18:02;;;;;;;11.32;8.13;;;;;;;2.70;100.00;94013.78;5065786;28;20061;-51
2021/11/27 00:20:34;;;;;;;10.07;6.93;;;;;;;2.00;100.00;94012.13;5061505;28;20045;-53
2021/11/27 00:23:03;;;;;;;12.50;8.27;;;;;;;2.03;100.00;94013.59;5060863;28;20084;-51
2021/11/27 00:25:31;;;;;;;12.85;8.25;;;;;;;2.00;100.00;94008.72;5064906;28;21340;-56
2021/11/27 00:28:00;;;;;;;12.15;7.65;;;;;;;1.93;100.00;93997.28;5068264;28;20051;-54
2021/11/27 00:30:32;;;;;;;10.43;7.25;;;;;;;1.93;100.00;94005.06;5062145;28;20068;-52
2021/11/27 00:33:01;;;;;;;10.63;8.25;;;;;;;1.99;100.00;94000.06;5059892;28;20518;-51
2021/11/27 00:35:30;;;;;;;9.52;7.35;;;;;;;2.01;100.00;93997.34;5061078;28;20064;-54
2021/11/27 00:38:00;;;;;;;10.65;7.43;;;;;;;2.19;100.00;93992.06;5068405;28;20053;-56
2021/11/27 00:40:29;;;;;;;10.75;7.32;;;;;;;2.21;100.00;93987.56;5066223;28;20083;-54
2021/11/27 00:42:58;;;;;;;11.50;7.28;;;;;;;2.12;100.00;93982.28;5061343;28;20068;-51
2021/11/27 00:45:27;;;;;;;11.57;7.53;;;;;;;1.94;100.00;93981.53;5061851;28;20083;-52
2021/11/27 00:47:58;;;;;;;9.95;7.40;;;;;;;2.28;100.00;93976.38;5061669;28;20079;-55
2021/11/27 00:50:30;;;;;;;11.35;7.65;;;;;;;2.12;100.00;93971.91;5053577;28;20045;-54
2021/11/27 00:53:02;;;;;;;9.55;7.05;;;;;;;2.33;100.00;93973.28;5063192;28;20084;-51
2021/11/27 00:55:32;;;;;;;10.48;7.30;;;;;;;2.54;100.00;93972.88;5054656;28;20455;-57
2021/11/27 00:58:00;;;;;;;10.07;7.18;;;;;;;2.41;100.00;93975.94;5052849;28;20064;-50
2021/11/27 01:00:32;;;;;;;10.52;6.90;;;;;;;3.01;100.00;93973.19;5062993;28;20053;-52
2021/11/27 01:03:02;;;;;;;11.00;7.68;;;;;;;2.89;100.00;93969.28;5058648;28;20064;-52
2021/11/27 01:05:32;;;;;;;11.10;7.45;;;;;;;2.76;100.00;93958.50;5054756;28;20452;-55
2021/11/27 01:08:02;;;;;;;11.05;7.25;;;;;;;2.82;100.00;93968.25;5043083;28;20068;-53
2021/11/27 01:10:35;;;;;;;9.80;7.20;;;;;;;2.90;100.00;93957.06;5060452;28;20942;-53
2021/11/27 01:13:04;;;;;;;8.18;6.70;;;;;;;2.91;100.00;93966.50;5062456;28;20071;-50
2021/11/27 01:15:34;;;;;;;8.85;6.75;;;;;;;3.19;100.00;93965.25;5055310;28;20057;-56
2021/11/27 01:18:02;;;;;;;10.65;8.05;;;;;;;3.14;100.00;93964.13;5060376;28;20076;-58
2021/11/27 01:20:33;;;;;;;11.15;7.55;;;;;;;3.29;100.00;93963.28;5064224;28;20075;-56
2021/11/27 01:23:03;;;;;;;10.52;7.10;;;;;;;3.04;100.00;93959.03;5064504;28;20076;-55
2021/11/27 01:25:32;;;;;;;9.05;7.05;;;;;;;2.91;100.00;93956.91;5058907;28;20327;-57
2021/11/27 01:28:01;;;;;;;8.95;6.53;;;;;;;2.45;100.00;93951.25;5056597;28;20068;-56
2021/11/27 01:30:30;;;;;;;10.00;6.63;;;;;;;2.59;100.00;93950.66;5056428;28;20040;-53
2021/11/27 01:32:58;;;;;;;8.57;6.38;;;;;;;2.38;100.00;93942.44;5059355;28;20080;-51
2021/11/27 01:35:26;;;;;;;8.82;5.93;;;;;;;2.49;100.00;93952.56;5054165;28;20739;-53
2021/11/27 01:37:55;;;;;;;8.95;6.30;;;;;;;2.36;100.00;93945.19;5056330;28;20080;-55
2021/11/27 01:40:26;;;;;;;8.60;6.63;;;;;;;2.55;100.00;93948.53;5065024;28;20079;-51
2021/11/27 01:42:55;;;;;;;8.90;6.15;;;;;;;3.21;100.00;93947.69;5058186;28;20095;-55
2021/11/27 01:45:25;;;;;;;10.23;7.22;;;;;;;3.44;100.00;93950.47;5059285;28;20065;-52
2021/11/27 01:47:55;;;;;;;9.02;6.47;;;;;;;3.41;100.00;93947.38;5054907;28;20067;-52
2021/11/27 01:50:28;;;;;;;8.27;6.30;;;;;;;3.23;100.00;93947.50;5057030;28;20081;-56
2021/11/27 01:52:56;;;;;;;9.30;6.68;;;;;;;2.73;100.00;93953.63;5066461;28;20479;-53
2021/11/27 01:55:27;;;;;;;8.55;6.72;;;;;;;2.75;100.00;93938.66;5057766;28;20061;-51
2021/11/27 01:57:56;;;;;;;8.00;6.45;;;;;;;3.25;100.00;93942.97;5065278;28;20645;-52
2021/11/27 02:00:27;;;;;;;9.80;6.70;;;;;;;3.40;100.00;93925.69;5064279;28;20076;-51
2021/11/27 02:02:56;;;;;;;8.75;6.80;;;;;;;2.85;100.00;93929.72;5059353;28;20044;-54
2021/11/27 02:05:25;;;;;;;9.23;6.90;;;;;;;3.18;100.00;93929.78;5054704;28;20055;-53
2021/11/27 02:07:54;;;;;;;9.20;7.10;;;;;;;3.25;100.00;93924.72;5056672;28;20056;-50
2021/11/27 02:10:23;;;;;;;9.10;7.03;;;;;;;2.64;100.00;93916.34;5062558;28;20074;-56
2021/11/27 02:12:53;;;;;;;11.05;6.72;;;;;;;2.89;100.00;93929.41;5060013;28;20080;-54
2021/11/27 02:15:22;;;;;;;9.65;6.80;;;;;;;3.23;100.00;93924.88;5059189;28;20562;-52
2021/11/27 02:17:52;;;;;;;9.70;7.00;;;;;;;3.19;100.00;93918.38;5060475;28;20072;-54
2021/11/27 02:20:21;;;;;;;;;;;;;;;2.73;100.00;93915.41;5062662;28;20084;-53
2021/11/27 02:22:51;;;;;;;12.43;7.68;;;;;;;3.02;100.00;93922.75;5063967;28;20019;-54
2021/11/27 02:25:21;;;;;;;11.30;7.30;;;;;;;3.42;100.00;93908.13;5057978;28;20079;-57
2021/11/27 02:27:52;;;;;;;11.07;7.60;;;;;;;3.43;100.00;93911.53;5060411;28;20096;-48
2021/11/27 02:30:22;;;;;;;10.18;7.25;;;;;;;3.30;100.00;93899.00;5049257;28;20060;-52
2021/11/27 02:32:52;;;;;;;11.27;7.75;;;;;;;3.56;100.00;93897.03;5055392;28;20041;-51
2021/11/27 02:35:21;;;;;;;10.50;7.60;;;;;;;3.70;100.00;93882.50;5061227;28;20107;-55
2021/11/27 02:37:51;;;;;;;11.02;7.25;;;;;;;3.51;100.00;93878.50;5065019;28;20084;-52
2021/11/27 02:40:19;;;;;;;11.63;7.82;;;;;;;3.63;100.00;93883.34;5053462;28;20052;-51
2021/11/27 02:42:48;;;;;;;12.00;8.02;;;;;;;3.80;100.00;93883.16;5053737;28;20581;-57
2021/11/27 02:45:17;;;;;;;10.93;7.15;;;;;;;3.85;100.00;93874.81;5063061;28;20059;-55
2021/11/27 02:47:45;;;;;;;11.70;7.85;;;;;;;3.93;100.00;93874.00;5057346;28;20073;-50
2021/11/27 02:50:14;;;;;;;12.60;8.35;;;;;;;3.68;100.00;93870.63;5056853;28;20395;-55
2021/11/27 02:52:43;;;;;;;11.75;7.72;;;;;;;3.77;100.00;93864.41;5066530;28;20060;-55
2021/11/27 02:55:13;;;;;;;11.85;7.78;;;;;;;3.59;100.00;93861.22;5059532;28;20061;-52
2021/11/27 02:57:41;;;;;;;13.02;8.05;;;;;;;3.43;100.00;93859.44;5058569;28;20071;-53
2021/11/27 03:00:13;;;;;;;13.88;8.25;;;;;;;4.03;100.00;93864.19;5057701;28;20100;-54
2021/11/27 03:02:42;;;;;;;10.85;7.32;;;;;;;3.48;100.00;93851.97;5054150;28;20041;-52
2021/11/27 03:05:10;;;;;;;10.23;7.30;;;;;;;3.49;100.00;93854.38;5064293;28;20043;-54
2021/11/27 03:07:40;;;;;;;10.93;7.65;;;;;;;3.42;100.00;93850.00;5062214;28;20057;-53
2021/11/27 03:10:11;;;;;;;10.27;6.93;;;;;;;2.81;100.00;93850.34;5059201;28;20872;-52
2021/11/27 03:12:42;;;;;;;10.10;6.85;;;;;;;2.91;100.00;93839.78;5066217;28;20052;-54
2021/11/27 03:15:11;;;;;;;10.32;7.03;;;;;;;3.06;100.00;93847.75;5058990;28;20049;-51
2021/11/27 03:17:40;;;;;;;10.38;7.28;;;;;;;3.71;100.00;93836.41;5057481;28;20124;-52
2021/11/27 03:20:11;;;;;;;11.13;7.22;;;;;;;3.35;100.00;93844.66;5054880;28;20049;-49
2021/11/27 03:22:40;;;;;;;9.55;6.95;;;;;;;3.77;100.00;93849.59;5058503;28;20109;-55
2021/11/27 03:25:10;;;;;;;9.80;6.90;;;;;;;3.64;100.00;93838.88;5064698;28;20077;-53
2021/11/27 03:27:39;;;;;;;10.73;7.65;;;;;;;3.67;100.00;93838.53;5058847;28;20040;-57
2021/11/27 03:30:12;;;;;;;11.60;7.18;;;;;;;3.83;100.00;93847.31;5061878;28;20072;-53
2021/11/27 03:32:41;;;;;;;9.30;7.13;;;;;;;3.65;100.00;93847.50;5056055;28;20684;-55
2021/11/27 03:35:11;;;;;;;10.45;7.22;;;;;;;3.31;100.00;93846.78;5060963;28;20073;-57
2021/11/27 03:37:40;;;;;;;11.43;7.65;;;;;;;3.57;100.00;93837.91;5060907;28;20056;-55
2021/11/27 03:40:11;;;;;;;10.25;7.07;;;;;;;3.29;100.00;93840.09;5052922;28;20048;-56
2021/11/27 03:42:40;;;;;;;8.65;6.97;;;;;;;4.12;100.00;93839.69;5057566;28;20558;-53
2021/11/27 03:45:14;;;;;;;11.23;7.40;;;;;;;4.30;100.00;93839.44;5059009;28;20059;-57
2021/11/27 03:48:02;;;;;;;10.43;7.20;;;;;;;4.37;100.00;93843.00;5058394;28;20068;-56
2021/11/27 03:50:31;;;;;;;9.77;7.45;;;;;;;4.42;100.00;93840.69;5055900;28;20052;-58
2021/11/27 03:53:01;;;;;;;12.63;7.80;;;;;;;4.56;100.00;93844.34;5056000;28;20094;-58
2021/11/27 03:55:30;;;;;;;10.15;7.10;;;;;;;4.53;100.00;93837.69;5054655;28;20064;-53
2021/11/27 03:57:58;;;;;;;9.52;6.95;;;;;;;4.32;100.00;93841.88;5052125;28;20321;-55
2021/11/27 04:00:28;;;;;;;9.13;6.50;;;;;;;3.93;100.00;93827.88;5068640;28;20060;-53
2021/11/27 04:02:58;;;;;;;11.35;6.85;;;;;;;4.22;100.00;93824.66;5061404;28;20068;-55
2021/11/27 04:05:27;;;;;;;9.18;6.75;;;;;;;4.52;100.00;93830.84;5066202;28;20902;-56
2021/11/27 04:07:57;;;;;;;9.65;6.93;;;;;;;4.65;100.00;93830.28;5068236;28;20080;-52
2021/11/27 04:10:26;;;;;;;10.38;7.28;;;;;;;4.68;100.00;93829.94;5061016;28;20063;-54
2021/11/27 04:12:55;;;;;;;8.98;7.28;;;;;;;4.53;100.00;93823.81;5059644;28;20080;-56
2021/11/27 04:15:23;;;;;;;10.05;7.10;;;;;;;4.84;100.00;93829.00;5060817;28;20071;-52
2021/11/27 04:17:53;;;;;;;8.73;6.57;;;;;;;4.15;100.00;93823.72;5062295;28;20072;-51
2021/11/27 04:20:22;;;;;;;8.65;6.70;;;;;;;4.60;100.00;93816.94;5060564;28;20592;-51
2021/11/27 04:22:51;;;;;;;9.10;6.72;;;;;;;4.44;100.00;93820.47;5060583;28;20048;-54
2021/11/27 04:25:19;;;;;;;9.27;7.10;;;;;;;4.89;100.00;93824.09;5052619;28;20061;-53
2021/11/27 04:27:48;;;;;;;9.10;7.10;;;;;;;5.11;100.00;93826.84;5056328;28;20084;-54
2021/11/27 04:30:19;;;;;;;9.50;6.70;;;;;;;5.06;100.00;93816.94;5054369;28;20076;-54
2021/11/27 04:32:48;;;;;;;9.20;6.60;;;;;;;4.56;100.00;93815.66;5054687;28;20092;-56
2021/11/27 04:35:18;;;;;;;9.48;6.90;;;;;;;4.89;100.00;93818.06;5052374;28;20076;-57
2021/11/27 04:37:47;;;;;;;9.40;6.57;;;;;;;5.14;100.00;93816.84;5055031;28;20102;-56
2021/11/27 04:40:16;;;;;;;8.30;6.68;;;;;;;4.07;100.00;93815.94;5060172;28;20118;-56
2021/11/27 04:42:45;;;;;;;7.30;5.82;;;;;;;3.76;100.00;93821.91;5055072;28;20041;-58
2021/11/27 04:45:15;;;;;;;9.00;6.88;;;;;;;3.70;100.00;93821.78;5056253;28;20495;-55
2021/11/27 04:47:43;;;;;;;9.80;6.68;;;;;;;3.62;100.00;93817.41;5056141;28;20095;-52
2021/11/27 04:50:12;;;;;;;8.30;6.35;;;;;;;4.46;100.00;93815.06;5059737;28;20076;-56
2021/11/27 04:52:42;;;;;;;7.40;6.32;;;;;;;4.80;100.00;93819.09;5064239;28;20083;-54
2021/11/27 04:55:11;;;;;;;7.65;6.22;;;;;;;4.27;100.00;93818.94;5056976;28;20068;-53
2021/11/27 04:57:40;;;;;;;8.80;5.93;;;;;;;3.95;100.00;93825.09;5053443;28;20069;-56
2021/11/27 05:00:12;;;;;;;7.85;6.00;;;;;;;3.94;100.00;93824.28;5060250;28;20403;-57
2021/11/27 05:02:41;;;;;;;7.82;6.30;;;;;;;4.00;100.00;93822.81;5055080;28;20072;-51
2021/11/27 05:05:09;;;;;;;7.20;5.90;;;;;;;4.07;100.00;93826.38;5062703;28;20065;-52
2021/11/27 05:07:38;;;;;;;9.13;6.32;;;;;;;4.44;100.00;93817.88;5065767;28;20084;-56
2021/11/27 05:10:09;;;;;;;6.78;5.88;;;;;;;4.67;100.00;93825.69;5057404;28;20078;-56
2021/11/27 05:12:38;;;;;;;7.78;5.68;;;;;;;4.76;100.00;93810.78;5061122;28;20072;-51
2021/11/27 05:15:08;;;;;;;6.50;5.45;;;;;;;4.15;100.00;93823.72;5062384;28;20072;-52
2021/11/27 05:17:37;;;;;;;7.07;5.70;;;;;;;4.18;100.00;93820.75;5055547;28;20064;-54
2021/11/27 05:20:07;;;;;;;6.07;5.05;;;;;;;3.86;100.00;93818.31;5061087;28;20068;-56
2021/11/27 05:22:36;;;;;;;6.25;5.63;;;;;;;4.10;100.00;93827.81;5058052;28;20222;-54
2021/11/27 05:25:05;;;;;;;6.90;5.72;;;;;;;4.39;100.00;93821.97;5057113;28;20072;-53
2021/11/27 05:27:36;;;;;;;7.65;5.40;;;;;;;4.87;100.00;93820.81;5061759;28;20053;-53
2021/11/27 05:30:06;;;;;;;5.78;5.15;;;;;;;4.14;100.00;93822.09;5060036;28;20075;-51
2021/11/27 05:32:54;;;;;;;6.22;5.63;;;;;;;4.25;100.00;93818.28;5062663;28;20113;-55
2021/11/27 05:35:22;;;;;;;8.70;5.70;;;;;;;4.91;100.00;93809.03;5060117;28;20426;-56
2021/11/27 05:37:51;;;;;;;6.50;5.63;;;;;;;4.62;100.00;93816.78;5063560;28;20076;-53
2021/11/27 05:40:19;;;;;;;7.75;5.88;;;;;;;4.07;100.00;93825.56;5064845;28;20036;-54
2021/11/27 05:42:49;;;;;;;8.02;5.93;;;;;;;4.89;100.00;93826.69;5056178;28;20044;-58
2021/11/27 05:45:19;;;;;;;6.60;5.55;;;;;;;4.86;100.00;93818.41;5058906;28;20081;-52
2021/11/27 05:47:47;;;;;;;7.30;5.43;;;;;;;3.93;100.00;93808.84;5063766;28;20546;-52
2021/11/27 05:50:16;;;;;;;6.47;5.70;;;;;;;3.93;100.00;93808.84;5054089;28;20072;-48
2021/11/27 05:52:44;;;;;;;6.35;5.15;;;;;;;3.96;100.00;93811.09;5063828;28;20649;-53
2021/11/27 05:55:12;;;;;;;6.47;5.60;;;;;;;4.79;100.00;93814.88;5063114;28;20071;-56
2021/11/27 05:57:43;;;;;;;8.65;6.03;;;;;;;4.93;100.00;93824.53;5057149;28;20080;-51
2021/11/27 06:00:15;;;;;;;8.18;5.90;;;;;;;5.41;100.00;93817.28;5060844;28;20076;-53
2021/11/27 06:02:43;;;;;;;6.25;5.40;;;;;;;5.59;100.00;93817.72;5059369;28;20364;-54
2021/11/27 06:05:12;;;;;;;8.52;5.30;;;;;;;4.65;100.00;93816.44;5062786;28;20490;-57
2021/11/27 06:07:41;;;;;;;6.40;5.50;;;;;;;4.37;100.00;93814.31;5066854;28;20088;-49
2021/11/27 06:10:09;;;;;;;6.82;5.60;;;;;;;4.48;100.00;93803.47;5059139;28;20059;-53
2021/11/27 06:12:39;;;;;;;7.80;5.85;;;;;;;4.45;100.00;93805.63;5057068;28;20056;-54
2021/11/27 06:15:07;;;;;;;7.30;6.13;;;;;;;4.82;100.00;93806.66;5061042;28;20041;-52
2021/11/27 06:17:37;;;;;;;7.72;6.35;;;;;;;5.56;100.00;93806.81;5062804;28;20083;-54
2021/11/27 06:20:07;;;;;;;7.95;6.30;;;;;;;5.48;100.00;93811.16;5064646;28;20080;-47
2021/11/27 06:22:35;;;;;;;8.95;6.00;;;;;;;4.70;100.00;93821.94;5062193;28;20243;-51
2021/11/27 06:25:24;;;;;;;7.00;6.03;;;;;;;5.12;100.00;93812.78;5061465;28;20040;-52
2021/11/27 06:27:53;;;;;;;7.45;5.82;;;;;;;5.41;100.00;93818.09;5062596;28;20052;-53
2021/11/27 06:30:22;;;;;;;7.85;6.20;;;;;;;5.57;100.00;93824.94;5059042;28;20075;-51
2021/11/27 06:32:52;;;;;;;7.97;6.22;;;;;;;5.68;100.00;93828.94;5063543;28;20057;-54
2021/11/27 06:35:20;;;;;;;7.70;6.10;;;;;;;5.38;100.00;93831.50;5056748;28;20049;-55
2021/11/27 06:37:49;;;;;;;7.80;5.57;;;;;;;5.27;100.00;93845.00;5062275;28;20464;-54
2021/11/27 06:40:17;;;;;;;7.95;5.90;;;;;;;4.92;100.00;93864.66;5060330;28;20037;-57
2021/11/27 06:42:46;;;;;;;6.20;5.07;;;;;;;4.66;100.00;93868.44;5064024;28;20052;-55
2021/11/27 06:45:14;;;;;;;7.38;5.80;;;;;;;4.94;100.00;93873.97;5062640;28;20068;-56
2021/11/27 06:47:42;;;;;;;7.18;5.35;;;;;;;4.42;100.00;93879.81;5054351;28;20426;-55
2021/11/27 06:50:13;;;;;;;7.30;5.63;;;;;;;4.46;100.00;93885.50;5058905;28;20052;-54
2021/11/27 06:52:42;;;;;;;;;;;;;;;4.97;100.00;93880.66;5062905;28;20313;-56
2021/11/27 06:55:11;;;;;;;6.57;5.20;;;;;;;4.87;100.00;93883.47;5063311;28;19928;-56
2021/11/27 06:57:39;;;;;;;6.60;5.25;;;;;;;4.87;100.00;93890.50;5038569;28;20056;-55
2021/11/27 07:00:09;;;;;;;6.22;5.38;;;;;;;4.71;100.00;93892.25;5058794;28;20069;-51
2021/11/27 07:02:38;;;;;;;7.07;5.65;;;;;;;4.53;100.00;93897.69;5061299;28;20125;-55
2021/11/27 07:05:07;;;;;;;6.40;5.22;;;;;;;4.19;100.00;93905.84;5066254;28;20051;-55
2021/11/27 07:07:36;;;;;;;7.22;5.50;;;;;;;4.79;100.00;93895.78;5065640;28;20072;-54
2021/11/27 07:10:06;;;;;;;7.73;5.60;;;;;;;4.76;100.00;93917.81;5061600;28;20037;-58
2021/11/27 07:12:38;;;;;;;5.82;5.07;;;;;;;4.50;100.00;93924.13;5066684;28;20037;-58
2021/11/27 07:15:08;;;;;;;7.57;5.57;;;;;;;4.37;100.00;93923.88;5058840;28;20056;-58
2021/11/27 07:17:37;;;;;;;7.30;5.72;;;;;;;4.19;100.00;93936.31;5064112;28;20071;-57
2021/11/27 07:20:08;;;;;;;7.25;5.88;;;;;;;4.76;100.00;93933.47;5059257;28;20128;-58
2021/11/27 07:22:37;;;;;;;6.43;5.80;;;;;;;4.91;100.00;93933.56;5054893;28;21540;-54
2021/11/27 07:25:07;;;;;;;7.10;6.15;;;;;;;4.85;100.00;93940.28;5060752;28;20045;-54
2021/11/27 07:27:36;;;;;;;8.43;6.28;;;;;;;4.82;100.00;93940.63;5063883;28;20056;-59
2021/11/27 07:30:06;;;;;;;7.22;6.20;;;;;;;5.32;100.00;93941.94;5057669;28;20048;-59
2021/11/27 07:32:35;;;;;;;9.48;6.20;;;;;;;5.40;100.00;93936.66;5067391;28;20229;-58
2021/11/27 07:35:04;;;;;;;8.43;6.53;;;;;;;5.54;100.00;93926.41;5059358;28;20523;-58
2021/11/27 07:37:32;;;;;;;7.97;6.70;;;;;;;5.29;100.00;93939.66;5064156;28;20131;-56
2021/11/27 07:40:02;;;;;;;8.82;6.47;;;;;;;5.25;100.00;93935.78;5067933;28;20787;-54
2021/11/27 07:42:30;;;;;;;9.60;6.53;;;;;;;5.78;100.00;93928.00;5064284;28;20045;-55
2021/11/27 07:44:59;;;;;;;7.22;6.20;;;;;;;4.41;100.00;93919.94;5058617;28;20414;-56
2021/11/27 07:47:27;;;;;;;7.60;5.80;;;;;;;5.24;100.00;93934.16;5063366;28;20044;-55
2021/11/27 07:49:59;;;;;;;7.30;6.22;;;;;;;4.76;100.00;93920.44;5066126;28;20060;-53
2021/11/27 07:52:28;;;;;;;7.43;6.13;;;;;;;4.63;100.00;93928.00;5062323;28;20080;-54
2021/11/27 07:54:57;;;;;;;7.97;6.35;;;;;;;4.27;100.00;93918.06;5063349;28;20051;-54
2021/11/27 07:57:26;;;;;;;8.05;5.97;;;;;;;4.40;100.00;93922.72;5055443;28;20044;-56
2021/11/27 07:59:55;;;;;;;7.63;6.03;;;;;;;4.44;100.00;93911.78;5051138;28;20084;-59
2021/11/27 08:02:23;;;;;;;7.68;6.03;;;;;;;4.37;100.00;93915.22;5057222;28;20490;-60
2021/11/27 08:04:52;;;;;;;10.43;5.80;;;;;;;4.88;100.00;93913.00;5057763;28;20080;-56
2021/11/27 08:07:20;;;;;;;7.40;5.50;;;;;;;4.32;100.00;93918.34;5055351;28;20060;-55
2021/11/27 08:09:49;;;;;;;6.57;5.85;;;;;;;5.40;100.00;93923.59;5053010;28;20542;-49
2021/11/27 08:12:17;;;;;;;6.05;5.05;;;;;;;5.47;100.00;93915.84;5058434;28;20065;-54
2021/11/27 08:14:47;;;;;;;6.85;5.50;;;;;;;4.58;100.00;93925.91;5057092;28;20076;-56
2021/11/27 08:17:15;;;;;;;6.80;5.43;;;;;;;4.63;100.00;93925.38;5048498;28;20073;-57
2021/11/27 08:19:44;;;;;;;6.82;5.55;;;;;;;4.42;100.00;93931.19;5058140;28;20088;-58
2021/11/27 08:22:12;;;;;;;6.70;5.50;;;;;;;4.87;100.00;93934.88;5059249;28;20090;-57
2021/11/27 08:24:41;;;;;;;7.47;5.50;;;;;;;4.83;100.00;93937.03;5058906;28;20068;-54
2021/11/27 08:27:10;;;;;;;7.07;5.80;;;;;;;5.32;100.00;93926.25;5062300;28;20080;-56
2021/11/27 08:29:39;;;;;;;6.85;5.65;;;;;;;4.72;100.00;93937.41;5049627;28;20081;-58
2021/11/27 08:32:09;;;;;;;7.30;5.65;;;;;;;5.65;100.00;93939.06;5050700;28;20076;-54
2021/11/27 08:34:37;;;;;;;8.23;6.30;;;;;;;5.83;100.00;93939.56;5053230;28;20085;-56
2021/11/27 08:37:05;;;;;;;9.05;7.18;;;;;;;5.60;100.00;93938.78;5059238;28;20095;-56
2021/11/27 08:39:34;;;;;;;9.80;6.65;;;;;;;4.81;100.00;93948.63;5056557;28;20075;-54
2021/11/27 08:42:02;;;;;;;11.07;7.30;;;;;;;4.54;100.00;93945.47;5062818;28;20079;-58
2021/11/27 08:44:31;;;;;;;8.95;6.55;;;;;;;4.27;100.00;93946.75;5056240;28;20068;-55
2021/11/27 08:46:59;;;;;;;11.93;8.55;;;;;;;4.61;100.00;93950.81;5059061;28;20081;-55
2021/11/27 08:49:29;;;;;;;14.98;8.77;;;;;;;4.86;100.00;93956.75;5051055;28;20554;-52
2021/11/27 08:51:57;;;;;;;14.57;9.30;;;;;;;5.11;100.00;93952.22;5059209;28;20085;-57
2021/11/27 08:54:26;;;;;;;16.38;10.60;;;;;;;5.72;100.00;93955.69;5057459;28;20487;-55
2021/11/27 08:56:56;;;;;;;15.77;9.98;;;;;;;5.61;100.00;93958.69;5052159;28;20077;-57
2021/11/27 08:59:25;;;;;;;16.17;10.25;;;;;;;5.48;100.00;93978.41;5055837;28;20076;-54
2021/11/27 09:01:54;;;;;;;15.45;10.65;;;;;;;5.94;100.00;93969.72;5058480;28;20084;-51
2021/11/27 09:04:23;;;;;;;21.60;11.88;;;;;;;6.18;100.00;93969.50;5059844;28;20064;-59
2021/11/27 09:06:53;;;;;;;22.20;12.55;;;;;;;6.12;100.00;93972.00;5058597;28;20057;-56
2021/11/27 09:09:22;;;;;;;20.35;11.88;;;;;;;6.07;100.00;93969.94;5060719;28;22164;-56
2021/11/27 09:11:50;;;;;;;19.55;11.93;;;;;;;5.83;100.00;93970.13;5061990;28;20186;-56
2021/11/27 09:14:19;;;;;;;21.33;11.60;;;;;;;5.92;100.00;93969.91;5057065;28;20079;-56
2021/11/27 09:16:51;;;;;;;16.13;9.80;;;;;;;6.00;100.00;93976.06;5056474;28;20084;-53
2021/11/27 09:19:20;;;;;;;10.05;7.35;;;;;;;4.96;100.00;93984.28;5061719;28;20068;-56
2021/11/27 09:21:50;;;;;;;9.32;6.60;;;;;;;4.68;100.00;93989.16;5051220;28;20084;-54
2021/11/27 09:24:21;;;;;;;14.07;8.20;;;;;;;5.12;100.00;93985.16;5039591;28;20064;-57
2021/11/27 09:26:49;;;;;;;10.52;7.75;;;;;;;5.72;100.00;93987.88;5053390;28;20076;-51
2021/11/27 09:29:18;;;;;;;21.30;15.15;;;;;;;5.25;100.00;93985.41;5055364;28;20068;-59
2021/11/27 09:31:48;;;;;;;16.02;9.27;;;;;;;4.79;100.00;94001.00;5053944;28;20080;-52
2021/11/27 09:34:16;;;;;;;12.95;8.55;;;;;;;5.54;100.00;94005.66;5061765;28;20068;-57
2021/11/27 09:36:46;;;;;;;10.65;8.73;;;;;;;5.53;100.00;94004.00;5054768;28;20075;-58
2021/11/27 09:39:17;;;;;;;12.30;9.88;;;;;;;6.09;100.00;94003.75;5053558;28;20073;-54
2021/11/27 09:41:47;;;;;;;10.43;8.65;;;;;;;5.82;100.00;94003.31;5054919;28;20084;-56
2021/11/27 09:44:17;;;;;;;;;;;;;;;5.88;100.00;94007.84;5062979;28;20077;-55
2021/11/27 09:46:47;;;;;;;7.63;6.00;;;;;;;6.10;100.00;93992.31;5061080;28;19971;-58
2021/11/27 09:49:21;;;;;;;7.65;6.28;;;;;;;5.78;100.00;93993.38;5062126;28;20577;-57
2021/11/27 09:51:52;;;;;;;6.72;5.75;;;;;;;5.82;100.00;93995.47;5053579;28;20080;-52
2021/11/27 09:54:21;;;;;;;8.20;6.32;;;;;;;6.10;100.00;93994.94;5056249;28;20474;-56
2021/11/27 09:56:55;;;;;;;7.82;5.63;;;;;;;6.32;100.00;94001.91;5061467;28;20522;-55
2021/11/27 09:59:25;;;;;;;7.45;5.70;;;;;;;6.58;100.00;93992.81;5053679;28;20535;-59
2021/11/27 10:01:55;;;;;;;8.95;6.43;;;;;;;6.58;100.00;94003.28;5056682;28;20076;-56
2021/11/27 10:04:24;;;;;;;7.45;5.85;;;;;;;5.81;100.00;94016.53;5051362;28;20653;-52
2021/11/27 10:06:53;;;;;;;9.68;6.13;;;;;;;6.54;100.00;94009.88;5055550;28;20052;-55
2021/11/27 10:09:23;;;;;;;6.38;5.50;;;;;;;7.00;100.00;94007.84;5059733;28;20068;-57
2021/11/27 10:11:54;;;;;;;7.20;5.90;;;;;;;7.15;100.00;93989.47;5056370;28;20063;-54
2021/11/27 10:14:23;;;;;;;10.32;6.93;;;;;;;7.17;100.00;93999.78;5055866;28;20087;-59
2021/11/27 10:17:07;;;;;;;8.48;6.82;;;;;;;7.10;100.00;93999.69;5052041;28;20103;-58
2021/11/27 10:19:56;;;;;;;8.00;6.18;;;;;;;7.18;100.00;94001.41;5052770;28;20455;-57
2021/11/27 10:22:28;;;;;;;7.85;6.40;;;;;;;7.10;100.00;93997.88;5054739;28;20593;-57
2021/11/27 10:24:57;;;;;;;19.40;12.45;;;;;;;7.34;100.00;94004.59;5053086;28;20067;-59
2021/11/27 10:27:29;;;;;;;11.63;8.05;;;;;;;7.88;100.00;93999.88;5051572;28;20076;-55
2021/11/27 10:30:04;;;;;;;26.92;19.10;;;;;;;7.51;100.00;93999.16;5054163;28;20076;-57
2021/11/27 10:32:35;;;;;;;11.00;9.25;;;;;;;7.57;100.00;94008.88;5050494;28;20084;-57
2021/11/27 10:35:07;;;;;;;13.52;10.98;;;;;;;7.62;100.00;94003.88;5055061;28;20191;-58
2021/11/27 10:37:40;;;;;;;12.18;9.02;;;;;;;7.24;100.00;94000.66;5059894;28;20296;-57
2021/11/27 10:40:10;;;;;;;14.38;11.18;;;;;;;7.96;100.00;94002.38;5047722;28;20060;-56
2021/11/27 10:42:44;;;;;;;14.93;10.70;;;;;;;8.18;100.00;94006.59;5049429;28;20084;-52
2021/11/27 10:45:16;;;;;;;13.82;10.52;;;;;;;8.22;100.00;94002.56;5054514;28;20107;-59
2021/11/27 10:47:44;;;;;;;9.10;7.13;;;;;;;8.01;100.00;94000.00;5045942;28;20163;-56
2021/11/27 10:50:18;;;;;;;10.18;8.70;;;;;;;8.18;100.00;93990.03;5054034;28;20096;-57
2021/11/27 10:52:48;;;;;;;9.70;7.20;;;;;;;8.31;100.00;93987.50;5066098;28;20080;-58
2021/11/27 10:55:22;;;;;;;8.13;5.70;;;;;;;7.98;100.00;93995.13;5053689;28;20076;-57
2021/11/27 10:57:55;;;;;;;6.55;5.40;;;;;;;7.87;100.00;93987.75;5052702;28;20076;-57
2021/11/27 11:00:31;;;;;;;7.60;6.30;;;;;;;8.24;100.00;93984.84;5058238;28;20071;-58
2021/11/27 11:03:01;;;;;;;7.68;6.00;;;;;;;8.16;100.00;93992.88;5054812;28;20075;-55
2021/11/27 11:05:35;;;;;;;5.80;4.90;;;;;;;7.82;100.00;93994.41;5059458;28;20064;-52
2021/11/27 11:08:05;;;;;;;9.20;7.28;;;;;;;7.90;100.00;93997.88;5057912;28;20080;-56
2021/11/27 11:10:34;;;;;;;7.70;5.38;;;;;;;7.41;100.00;93999.44;5061205;28;20063;-56
2021/11/27 11:13:05;;;;;;;7.18;6.45;;;;;;;8.20;100.00;93996.72;5050167;28;20526;-53
2021/11/27 11:15:34;;;;;;;;;;;;;;;8.25;100.00;93994.31;5067267;28;20073;-57
2021/11/27 11:18:14;;;;;;;7.80;6.15;;;;;;;8.12;100.00;93991.63;5053275;28;20595;-53
2021/11/27 11:20:45;;;;;;;11.95;7.70;;;;;;;7.33;100.00;93983.84;5054627;28;20164;-55
2021/11/27 11:23:17;;;;;;;7.78;6.68;;;;;;;7.06;100.00;93985.34;5052075;28;20080;-57
2021/11/27 11:26:00;;;;;;;13.50;8.10;;;;;;;6.84;100.00;93992.31;5057813;28;20072;-53
2021/11/27 11:28:31;;;;;;;25.08;15.75;;;;;;;6.79;100.00;93986.84;5054500;28;20095;-59
2021/11/27 11:31:06;;;;;;;19.30;12.75;;;;;;;7.59;100.00;93997.19;5049603;28;20069;-55
2021/11/27 11:33:38;;;;;;;15.20;10.15;;;;;;;6.98;100.00;93988.06;5053372;28;20083;-54
2021/11/27 11:36:08;;;;;;;15.10;10.45;;;;;;;7.41;100.00;93977.66;5054115;28;20063;-55
2021/11/27 11:38:40;;;;;;;15.35;10.88;;;;;;;7.57;100.00;93980.00;5056423;28;20340;-53
2021/11/27 11:41:09;;;;;;;16.45;11.43;;;;;;;8.13;100.00;93981.94;5060464;28;20711;-52
2021/11/27 11:43:39;;;;;;;19.67;12.20;;;;;;;8.06;100.00;93982.69;5053455;28;20084;-58